Time;durP1;ratioP1;P1;durP2;ratioP2;P2;SDS_P1;SDS_P2;PMS_P1;PMS_P2;Temp;Humidity;BMP_temperature;BMP_pressure;BME280_temperature;BME280_humidity;BME280_pressure;Samples;Min_cycle;Max_cycle;Signal;HPM_P1;HPM_P2
2023/07/09 00:01:52;;;;;;;8.70;8.60;;;21.90;99.90;;;;;;5051867;28;20573;-67
2023/07/09 00:04:21;;;;;;;8.70;8.60;;;21.70;99.90;;;;;;5063450;28;20462;-68
2023/07/09 00:06:48;;;;;;;8.33;8.23;;;21.60;99.90;;;;;;5061197;28;20470;-67
2023/07/09 00:09:16;;;;;;;8.70;8.60;;;21.60;99.90;;;;;;5066639;28;20466;-67
2023/07/09 00:11:44;;;;;;;8.70;8.60;;;21.60;99.90;;;;;;5063506;28;21170;-67
2023/07/09 00:14:11;;;;;;;8.63;8.53;;;21.50;99.90;;;;;;5065171;28;20544;-67
2023/07/09 00:16:39;;;;;;;8.87;8.77;;;21.50;99.90;;;;;;5062046;28;20579;-67
2023/07/09 00:19:13;;;;;;;8.20;8.10;;;21.40;99.90;;;;;;5067642;28;20469;-68
2023/07/09 00:21:41;;;;;;;8.40;8.30;;;21.30;99.90;;;;;;5059829;28;20544;-67
2023/07/09 00:24:10;;;;;;;8.20;8.10;;;21.30;99.90;;;;;;5065003;28;20466;-67
2023/07/09 00:26:40;;;;;;;7.87;7.77;;;21.30;99.90;;;;;;5065986;28;20478;-65
2023/07/09 00:29:09;;;;;;;7.60;7.50;;;21.30;99.90;;;;;;5066877;28;20463;-67
2023/07/09 00:31:38;;;;;;;7.70;7.60;;;21.10;99.90;;;;;;5062993;28;20973;-67
2023/07/09 00:34:05;;;;;;;7.70;7.60;;;21.10;99.90;;;;;;5063940;28;21324;-67
2023/07/09 00:36:33;;;;;;;7.80;7.70;;;21.00;99.90;;;;;;5064130;28;20518;-66
2023/07/09 00:39:04;;;;;;;7.60;7.50;;;20.90;99.90;;;;;;5064471;28;20467;-67
2023/07/09 00:41:34;;;;;;;7.70;7.60;;;20.70;99.90;;;;;;5069764;28;20463;-68
2023/07/09 00:44:22;;;;;;;7.60;7.50;;;20.70;99.90;;;;;;5064850;28;20494;-67
2023/07/09 00:47:26;;;;;;;7.10;7.00;;;20.60;99.90;;;;;;5056698;28;20466;-68
2023/07/09 00:50:03;;;;;;;6.77;6.67;;;20.70;99.90;;;;;;5055980;28;20498;-67
2023/07/09 00:52:35;;;;;;;6.40;6.30;;;20.80;99.90;;;;;;5056159;28;20544;-67
2023/07/09 00:55:08;;;;;;;6.60;6.50;;;20.80;99.90;;;;;;5057472;28;20509;-67
2023/07/09 00:57:41;;;;;;;6.73;6.63;;;20.70;99.90;;;;;;5056220;28;20513;-67
2023/07/09 01:00:14;;;;;;;6.37;6.27;;;20.60;99.90;;;;;;5056725;28;20463;-67
2023/07/09 01:02:45;;;;;;;6.23;6.13;;;20.60;99.90;;;;;;5060285;28;20475;-68
2023/07/09 01:05:17;;;;;;;6.07;5.97;;;20.60;99.90;;;;;;5065163;28;20636;-68
2023/07/09 01:07:45;;;;;;;6.60;6.50;;;20.60;99.90;;;;;;5060748;28;20466;-65
2023/07/09 01:10:15;;;;;;;6.50;6.40;;;20.60;99.90;;;;;;5063181;28;20981;-65
2023/07/09 01:12:43;;;;;;;6.40;6.30;;;20.60;99.90;;;;;;5059029;28;21436;-67
2023/07/09 01:15:11;;;;;;;6.60;6.50;;;20.60;99.90;;;;;;5057102;28;20479;-68
2023/07/09 01:17:37;;;;;;;6.60;6.50;;;20.60;99.90;;;;;;5041813;28;20530;-66
2023/07/09 01:20:08;;;;;;;6.67;6.57;;;20.50;99.90;;;;;;5039070;28;20478;-66
2023/07/09 01:22:36;;;;;;;7.00;6.90;;;20.50;99.90;;;;;;5040963;28;20530;-66
2023/07/09 01:25:06;;;;;;;6.60;6.50;;;20.50;99.90;;;;;;5037837;28;20456;-65
2023/07/09 01:27:36;;;;;;;6.70;6.60;;;20.40;99.90;;;;;;5037982;28;20897;-66
2023/07/09 01:30:07;;;;;;;6.80;6.70;;;20.40;99.90;;;;;;5040774;28;21017;-66
2023/07/09 01:32:38;;;;;;;6.50;6.40;;;20.30;99.90;;;;;;5040542;28;20533;-66
2023/07/09 01:35:07;;;;;;;6.93;6.83;;;20.30;99.90;;;;;;5037102;28;20502;-66
2023/07/09 01:37:37;;;;;;;6.30;6.20;;;20.30;99.90;;;;;;5036134;28;20459;-66
2023/07/09 01:40:06;;;;;;;6.30;6.20;;;20.20;99.90;;;;;;5039497;28;20467;-66
2023/07/09 01:42:33;;;;;;;6.30;6.20;;;20.10;99.90;;;;;;5037935;28;20638;-66
2023/07/09 01:45:01;;;;;;;6.23;6.13;;;20.20;99.90;;;;;;5037359;28;20986;-67
2023/07/09 01:47:28;;;;;;;6.20;6.10;;;20.20;99.90;;;;;;5040098;28;20455;-66
2023/07/09 01:49:56;;;;;;;6.40;6.30;;;20.20;99.90;;;;;;5041648;28;20461;-67
2023/07/09 01:52:27;;;;;;;6.37;6.27;;;20.00;99.90;;;;;;5037582;28;20484;-66
2023/07/09 01:54:55;;;;;;;6.30;6.20;;;19.90;99.90;;;;;;5039345;28;21116;-66
2023/07/09 01:57:23;;;;;;;5.80;5.70;;;19.70;99.90;;;;;;5041880;28;20464;-66
2023/07/09 01:59:52;;;;;;;4.93;4.93;;;19.60;99.90;;;;;;5043006;28;20479;-66
2023/07/09 02:02:19;;;;;;;5.27;5.17;;;19.40;99.90;;;;;;5034376;28;20459;-68
2023/07/09 02:04:50;;;;;;;5.10;5.10;;;19.30;99.90;;;;;;5036350;28;20475;-66
2023/07/09 02:07:18;;;;;;;5.30;5.20;;;19.30;99.90;;;;;;5039855;28;20471;-66
2023/07/09 02:09:45;;;;;;;4.80;4.80;;;19.40;99.90;;;;;;5035666;28;20469;-65
2023/07/09 02:12:14;;;;;;;5.10;5.10;;;19.40;99.90;;;;;;5042228;28;20469;-65
2023/07/09 02:14:43;;;;;;;5.30;5.20;;;19.40;99.90;;;;;;5043455;28;21022;-67
2023/07/09 02:17:11;;;;;;;5.00;5.00;;;19.40;99.90;;;;;;5040243;28;21002;-66
2023/07/09 02:19:38;;;;;;;4.63;4.63;;;19.40;99.90;;;;;;5041130;28;20526;-67
2023/07/09 02:22:05;;;;;;;5.00;5.00;;;19.40;99.90;;;;;;5039089;28;20463;-67
2023/07/09 02:24:32;;;;;;;5.00;5.00;;;19.30;99.90;;;;;;5042022;28;21087;-68
2023/07/09 02:27:01;;;;;;;5.77;5.67;;;19.40;99.90;;;;;;5040910;28;20978;-67
2023/07/09 02:29:30;;;;;;;5.40;5.30;;;19.40;99.90;;;;;;5040659;28;20962;-66
2023/07/09 02:31:59;;;;;;;5.40;5.30;;;19.40;99.90;;;;;;5037462;28;20557;-66
2023/07/09 02:34:26;;;;;;;5.70;5.60;;;19.40;99.90;;;;;;5038642;28;20468;-66
2023/07/09 02:36:53;;;;;;;5.37;5.27;;;19.40;99.90;;;;;;5039800;28;20469;-66
2023/07/09 02:39:20;;;;;;;5.43;5.33;;;19.50;99.90;;;;;;5040778;28;20466;-68
2023/07/09 02:41:48;;;;;;;5.20;5.10;;;19.40;99.90;;;;;;5036969;28;20477;-67
2023/07/09 02:44:15;;;;;;;5.40;5.30;;;19.40;99.90;;;;;;5035082;28;20487;-67
2023/07/09 02:46:43;;;;;;;5.60;5.50;;;19.40;99.90;;;;;;5040320;28;20551;-66
2023/07/09 02:49:12;;;;;;;5.80;5.70;;;19.50;99.90;;;;;;5035126;28;20552;-66
2023/07/09 02:51:39;;;;;;;5.03;5.03;;;19.50;99.90;;;;;;5038693;28;20483;-67
2023/07/09 02:54:06;;;;;;;5.00;5.00;;;19.50;99.90;;;;;;5043596;28;20994;-66
2023/07/09 02:56:33;;;;;;;5.50;5.40;;;19.50;99.90;;;;;;5039331;28;20815;-66
2023/07/09 02:59:00;;;;;;;6.00;5.90;;;19.50;99.90;;;;;;5041060;28;20460;-67
2023/07/09 03:01:27;;;;;;;6.03;5.93;;;19.60;99.90;;;;;;5032480;28;20824;-68
2023/07/09 03:03:57;;;;;;;6.03;5.93;;;19.60;99.90;;;;;;5037480;28;20491;-67
2023/07/09 03:06:25;;;;;;;5.73;5.63;;;19.60;99.90;;;;;;5048692;28;20464;-67
2023/07/09 03:08:53;;;;;;;5.50;5.40;;;19.60;99.90;;;;;;5046621;28;20990;-66
2023/07/09 03:11:21;;;;;;;5.37;5.27;;;19.60;99.90;;;;;;5052466;28;20470;-67
2023/07/09 03:13:49;;;;;;;4.90;4.90;;;19.50;99.90;;;;;;5049409;28;20554;-67
2023/07/09 03:16:19;;;;;;;4.50;4.50;;;19.40;99.90;;;;;;5048913;28;20468;-66
2023/07/09 03:18:48;;;;;;;4.60;4.60;;;19.20;99.90;;;;;;5058282;28;20462;-67
2023/07/09 03:21:16;;;;;;;4.70;4.70;;;19.20;99.90;;;;;;5047998;28;22327;-67
2023/07/09 03:23:43;;;;;;;4.60;4.60;;;19.20;99.90;;;;;;5037952;28;20485;-66
2023/07/09 03:26:10;;;;;;;4.53;4.53;;;19.20;99.90;;;;;;5033604;28;20467;-68
2023/07/09 03:28:36;;;;;;;4.60;4.60;;;19.20;99.90;;;;;;5039483;28;20456;-67
2023/07/09 03:31:03;;;;;;;4.60;4.60;;;19.20;99.90;;;;;;5037758;28;20472;-67
2023/07/09 03:33:30;;;;;;;4.83;4.83;;;19.20;99.90;;;;;;5037778;28;20480;-67
2023/07/09 03:35:57;;;;;;;4.60;4.60;;;19.20;99.90;;;;;;5035231;28;20835;-65
2023/07/09 03:38:25;;;;;;;4.87;4.87;;;19.20;99.90;;;;;;5038275;28;20461;-68
2023/07/09 03:40:53;;;;;;;4.80;4.80;;;19.20;99.90;;;;;;5036429;28;20542;-68
2023/07/09 03:43:20;;;;;;;4.80;4.80;;;19.20;99.90;;;;;;5038636;28;21061;-67
2023/07/09 03:45:47;;;;;;;4.90;4.90;;;19.20;99.90;;;;;;5037905;28;20499;-66
2023/07/09 03:48:14;;;;;;;5.00;5.00;;;19.30;99.90;;;;;;5037749;28;20531;-67
2023/07/09 03:50:43;;;;;;;5.20;5.10;;;19.30;99.90;;;;;;5037997;28;20463;-65
2023/07/09 03:53:09;;;;;;;4.77;4.77;;;19.30;99.90;;;;;;5035937;28;20475;-68
2023/07/09 03:55:37;;;;;;;4.17;4.17;;;19.40;99.90;;;;;;5039312;28;20950;-66
2023/07/09 03:58:06;;;;;;;4.80;4.80;;;19.40;99.90;;;;;;5034025;28;20480;-67
2023/07/09 04:00:34;;;;;;;5.10;5.10;;;19.50;99.90;;;;;;5036206;28;20835;-67
2023/07/09 04:03:02;;;;;;;5.10;5.10;;;19.50;99.90;;;;;;5036848;28;20515;-66
2023/07/09 04:05:29;;;;;;;5.33;5.23;;;19.50;99.90;;;;;;5035862;28;20464;-68
2023/07/09 04:07:56;;;;;;;5.40;5.30;;;19.50;99.90;;;;;;5038480;28;20468;-66
2023/07/09 04:10:23;;;;;;;4.90;4.90;;;19.60;99.90;;;;;;5037748;28;20472;-67
2023/07/09 04:12:51;;;;;;;5.20;5.10;;;19.60;99.90;;;;;;5036393;28;20994;-66
2023/07/09 04:15:18;;;;;;;5.40;5.30;;;19.70;99.90;;;;;;5034883;28;21319;-66
2023/07/09 04:17:45;;;;;;;5.60;5.50;;;19.70;99.90;;;;;;5039006;28;21018;-66
2023/07/09 04:20:13;;;;;;;5.40;5.30;;;19.80;99.90;;;;;;5035704;28;20467;-67
2023/07/09 04:22:41;;;;;;;5.50;5.40;;;19.90;99.90;;;;;;5034616;28;20904;-66
2023/07/09 04:25:10;;;;;;;5.40;5.30;;;19.80;99.90;;;;;;5034716;28;20487;-67
2023/07/09 04:27:38;;;;;;;5.10;5.00;;;19.70;99.90;;;;;;5036995;28;20876;-68
2023/07/09 04:30:10;;;;;;;5.67;5.57;;;19.50;99.90;;;;;;5038568;28;20474;-66
2023/07/09 04:32:37;;;;;;;5.47;5.37;;;19.60;99.90;;;;;;5040428;28;20976;-67
2023/07/09 04:35:06;;;;;;;4.87;4.87;;;19.70;99.90;;;;;;5041217;28;20460;-66
2023/07/09 04:37:33;;;;;;;5.07;5.07;;;19.90;99.90;;;;;;5040787;28;21021;-67
2023/07/09 04:40:00;;;;;;;4.87;4.87;;;19.90;99.90;;;;;;5040934;28;20471;-66
2023/07/09 04:42:27;;;;;;;5.20;5.10;;;20.10;99.90;;;;;;5047387;28;20473;-67
2023/07/09 04:44:54;;;;;;;5.20;5.10;;;20.30;99.90;;;;;;5050590;28;20490;-67
2023/07/09 04:47:23;;;;;;;5.70;5.60;;;20.50;99.90;;;;;;5056322;28;20522;-67
2023/07/09 04:49:51;;;;;;;5.87;5.77;;;20.60;99.90;;;;;;5059019;28;20462;-68
2023/07/09 04:52:18;;;;;;;5.80;5.70;;;20.80;99.90;;;;;;5052677;28;20485;-68
2023/07/09 04:54:45;;;;;;;6.50;6.40;;;21.00;99.90;;;;;;5047697;28;20837;-68
2023/07/09 04:57:13;;;;;;;6.43;6.33;;;21.10;99.90;;;;;;5046784;28;20452;-66
2023/07/09 04:59:41;;;;;;;7.10;7.00;;;21.30;99.90;;;;;;5042821;28;20472;-66
2023/07/09 05:02:08;;;;;;;7.23;7.13;;;21.40;99.90;;;;;;5046317;28;20464;-67
2023/07/09 05:04:36;;;;;;;7.53;7.43;;;21.60;99.90;;;;;;5034192;28;21183;-67
2023/07/09 05:07:04;;;;;;;8.07;7.97;;;21.70;99.90;;;;;;5028769;28;21012;-67
2023/07/09 05:09:30;;;;;;;7.90;7.80;;;21.90;99.90;;;;;;5028342;28;20465;-66
2023/07/09 05:11:57;;;;;;;7.97;7.87;;;22.00;99.90;;;;;;5021804;28;21038;-66
2023/07/09 05:14:24;;;;;;;8.10;8.00;;;22.10;99.90;;;;;;5024712;28;20811;-68
2023/07/09 05:16:51;;;;;;;8.07;7.97;;;22.20;99.90;;;;;;5026050;28;20541;-67
2023/07/09 05:19:18;;;;;;;8.60;8.50;;;22.30;99.90;;;;;;5024295;28;21795;-66
2023/07/09 05:21:46;;;;;;;8.07;7.97;;;22.50;99.90;;;;;;5024705;28;20464;-67
2023/07/09 05:24:13;;;;;;;7.90;7.80;;;22.60;99.90;;;;;;5026649;28;20534;-67
2023/07/09 05:26:40;;;;;;;8.47;8.37;;;22.70;99.90;;;;;;5026880;28;20461;-69
2023/07/09 05:29:07;;;;;;;8.10;8.00;;;22.90;99.90;;;;;;5025946;28;20456;-67
2023/07/09 05:31:35;;;;;;;8.10;8.00;;;23.00;99.90;;;;;;5024647;28;20463;-68
2023/07/09 05:34:03;;;;;;;8.60;8.50;;;23.20;99.90;;;;;;5019819;28;20457;-67
2023/07/09 05:36:31;;;;;;;8.50;8.40;;;23.30;99.90;;;;;;5023403;28;20460;-67
2023/07/09 05:38:59;;;;;;;8.30;8.20;;;23.40;99.90;;;;;;5025018;28;20557;-67
2023/07/09 05:41:26;;;;;;;8.63;8.53;;;23.50;99.90;;;;;;5024070;28;20564;-67
2023/07/09 05:43:53;;;;;;;8.50;8.40;;;23.60;99.90;;;;;;5028416;28;20581;-68
2023/07/09 05:46:22;;;;;;;8.50;8.40;;;23.70;99.90;;;;;;5031550;28;20456;-67
2023/07/09 05:48:49;;;;;;;8.40;8.30;;;23.80;99.90;;;;;;5031720;28;20451;-68
2023/07/09 05:51:16;;;;;;;8.70;8.60;;;23.90;99.90;;;;;;5030331;28;20472;-66
2023/07/09 05:53:43;;;;;;;8.80;8.70;;;24.00;99.90;;;;;;5037309;28;20459;-68
2023/07/09 05:56:11;;;;;;;8.67;8.57;;;24.20;99.90;;;;;;5035749;28;20834;-68
2023/07/09 05:58:38;;;;;;;8.50;8.40;;;24.40;99.90;;;;;;5028807;28;20458;-67
2023/07/09 06:01:05;;;;;;;8.73;8.63;;;24.50;99.90;;;;;;5041649;28;20965;-67
2023/07/09 06:03:33;;;;;;;8.60;8.50;;;24.60;99.90;;;;;;5034587;28;20603;-67
2023/07/09 06:06:00;;;;;;;8.73;8.63;;;24.70;99.90;;;;;;5026185;28;20521;-67
2023/07/09 06:08:27;;;;;;;9.00;8.90;;;24.80;99.90;;;;;;5033591;28;20475;-68
2023/07/09 06:10:56;;;;;;;9.43;9.23;;;24.90;99.90;;;;;;5031791;28;21208;-68
2023/07/09 06:13:25;;;;;;;9.50;9.30;;;25.00;99.90;;;;;;5030921;28;20763;-68
2023/07/09 06:15:54;;;;;;;10.10;9.90;;;25.20;99.90;;;;;;5027642;28;20487;-68
2023/07/09 06:18:21;;;;;;;9.70;9.50;;;25.40;99.90;;;;;;5032288;28;20517;-67
2023/07/09 06:20:49;;;;;;;9.97;9.77;;;25.50;99.90;;;;;;5031111;28;20467;-67
2023/07/09 06:23:17;;;;;;;9.70;9.50;;;25.50;99.90;;;;;;5032228;28;20502;-68
2023/07/09 06:25:47;;;;;;;10.27;10.07;;;25.70;99.90;;;;;;5032089;28;20583;-66
2023/07/09 06:28:15;;;;;;;10.27;10.07;;;26.00;99.90;;;;;;5027577;28;20956;-67
2023/07/09 06:30:43;;;;;;;10.40;10.20;;;26.10;99.90;;;;;;5030071;28;20473;-66
2023/07/09 06:33:12;;;;;;;10.00;9.80;;;26.20;99.90;;;;;;5031150;28;20464;-68
2023/07/09 06:35:39;;;;;;;10.17;9.97;;;26.30;99.90;;;;;;5038145;28;20460;-67
2023/07/09 06:38:06;;;;;;;10.20;10.00;;;26.40;99.90;;;;;;5034142;28;20599;-67
2023/07/09 06:40:34;;;;;;;10.20;10.00;;;26.60;99.90;;;;;;5032713;28;20472;-67
2023/07/09 06:43:01;;;;;;;10.27;10.07;;;26.60;99.90;;;;;;5032688;28;20455;-67
2023/07/09 06:45:28;;;;;;;10.60;10.40;;;26.70;99.90;;;;;;5033058;28;20488;-67
2023/07/09 06:47:58;;;;;;;10.73;10.53;;;26.80;99.90;;;;;;5035414;28;20833;-68
2023/07/09 06:50:25;;;;;;;10.80;10.60;;;26.90;99.90;;;;;;5042331;28;20551;-66
2023/07/09 06:52:51;;;;;;;11.60;11.30;;;27.00;99.90;;;;;;5050500;28;20543;-67
2023/07/09 06:55:20;;;;;;;11.00;10.80;;;27.10;99.90;;;;;;5049142;28;20867;-68
2023/07/09 06:57:46;;;;;;;10.87;10.67;;;27.30;99.90;;;;;;5032852;28;20836;-67
2023/07/09 07:00:14;;;;;;;11.03;10.83;;;27.40;99.90;;;;;;5044558;28;20962;-67
2023/07/09 07:02:41;;;;;;;11.40;11.10;;;27.50;99.90;;;;;;5044222;28;20570;-68
2023/07/09 07:05:09;;;;;;;11.47;11.17;;;27.60;99.90;;;;;;5037739;28;20502;-68
2023/07/09 07:07:36;;;;;;;11.13;10.90;;;27.70;99.90;;;;;;5041440;28;20541;-68
2023/07/09 07:10:05;;;;;;;12.13;11.83;;;27.90;99.90;;;;;;5036557;28;20471;-67
2023/07/09 07:12:42;;;;;;;11.73;11.43;;;28.10;99.90;;;;;;5032740;28;22163;-66
2023/07/09 07:15:10;;;;;;;11.77;11.47;;;28.40;99.90;;;;;;5040236;28;20480;-68
2023/07/09 07:17:37;;;;;;;11.70;11.40;;;28.50;99.90;;;;;;5058175;28;21128;-68
2023/07/09 07:20:04;;;;;;;11.73;11.43;;;28.70;99.90;;;;;;5058400;28;20928;-68
2023/07/09 07:22:32;;;;;;;12.67;12.37;;;28.90;99.90;;;;;;5053552;28;21198;-68
2023/07/09 07:24:59;;;;;;;12.30;12.00;;;28.90;99.90;;;;;;5055859;28;20487;-67
2023/07/09 07:27:26;;;;;;;12.13;11.83;;;28.90;99.90;;;;;;5054453;28;20466;-67
2023/07/09 07:29:54;;;;;;;12.00;11.70;;;29.10;99.90;;;;;;5057109;28;20491;-67
2023/07/09 07:32:20;;;;;;;11.90;11.60;;;29.40;99.90;;;;;;5053722;28;20839;-68
2023/07/09 07:34:48;;;;;;;11.70;11.40;;;29.60;99.90;;;;;;5048205;28;20474;-68
2023/07/09 07:37:15;;;;;;;12.40;12.10;;;29.70;99.90;;;;;;5050637;28;20558;-68
2023/07/09 07:39:44;;;;;;;12.30;12.00;;;29.80;99.90;;;;;;5056550;28;21251;-69
2023/07/09 07:42:12;;;;;;;12.47;12.17;;;29.80;99.90;;;;;;5054414;28;20478;-68
2023/07/09 07:44:39;;;;;;;12.33;12.03;;;30.00;99.90;;;;;;5054022;28;21024;-67
2023/07/09 07:47:06;;;;;;;12.23;11.93;;;30.00;99.90;;;;;;5048155;28;20777;-68
2023/07/09 07:49:34;;;;;;;12.93;12.53;;;30.10;99.90;;;;;;5052866;28;20462;-68
2023/07/09 07:52:03;;;;;;;12.73;12.43;;;30.30;99.90;;;;;;5059824;28;20875;-68
2023/07/09 07:54:31;;;;;;;12.73;12.43;;;30.50;99.90;;;;;;5053810;28;20466;-68
2023/07/09 07:56:59;;;;;;;13.30;12.90;;;30.60;99.90;;;;;;5054548;28;21020;-68
2023/07/09 07:59:26;;;;;;;13.07;12.67;;;30.60;99.90;;;;;;5054531;28;20472;-67
2023/07/09 08:01:53;;;;;;;12.90;12.50;;;30.70;99.90;;;;;;5049001;28;20521;-67
2023/07/09 08:04:21;;;;;;;13.40;13.00;;;30.80;99.90;;;;;;5043017;28;20502;-67
2023/07/09 08:06:48;;;;;;;13.13;12.73;;;31.10;99.90;;;;;;5049288;28;20472;-66
2023/07/09 08:09:16;;;;;;;13.37;12.97;;;31.30;99.90;;;;;;5045058;28;20890;-67
2023/07/09 08:11:43;;;;;;;13.33;12.93;;;31.50;99.90;;;;;;5051196;28;20462;-67
2023/07/09 08:14:12;;;;;;;13.53;13.13;;;31.90;99.90;;;;;;5050884;28;20476;-68
2023/07/09 08:16:39;;;;;;;13.77;13.37;;;32.50;99.90;;;;;;5034741;28;20491;-67
2023/07/09 08:19:06;;;;;;;13.77;13.37;;;33.10;99.90;;;;;;5034674;28;20455;-68
2023/07/09 08:21:33;;;;;;;14.00;13.60;;;33.80;99.90;;;;;;5030945;28;20500;-68
2023/07/09 08:24:00;;;;;;;13.80;13.40;;;34.20;99.90;;;;;;5034367;28;20468;-67
2023/07/09 08:26:27;;;;;;;13.97;13.57;;;34.60;99.90;;;;;;5032295;28;20519;-67
2023/07/09 08:28:55;;;;;;;14.17;13.77;;;34.80;99.90;;;;;;5036994;28;20491;-68
2023/07/09 08:31:23;;;;;;;13.43;13.03;;;34.90;99.90;;;;;;5036441;28;20459;-68
2023/07/09 08:33:50;;;;;;;13.80;13.40;;;35.10;99.90;;;;;;5033478;28;20480;-67
2023/07/09 08:36:17;;;;;;;13.37;12.97;;;35.90;99.90;;;;;;5034917;28;20448;-67
2023/07/09 08:38:44;;;;;;;13.83;13.43;;;36.20;99.90;;;;;;5033723;28;20464;-68
2023/07/09 08:41:26;;;;;;;13.40;13.00;;;36.40;99.90;;;;;;5034196;28;20974;-67
2023/07/09 08:44:05;;;;;;;13.40;13.00;;;37.00;98.90;;;;;;5041074;28;20460;-67
2023/07/09 08:46:43;;;;;;;13.50;13.10;;;36.80;97.70;;;;;;5044726;28;20483;-68
2023/07/09 08:49:19;;;;;;;13.77;13.37;;;36.60;97.60;;;;;;5046145;28;20456;-69
2023/07/09 08:51:48;;;;;;;13.57;13.17;;;36.80;97.00;;;;;;5036689;28;20932;-69
2023/07/09 08:54:21;;;;;;;13.30;12.90;;;37.50;96.20;;;;;;5042142;28;20456;-69
2023/07/09 08:56:50;;;;;;;13.23;12.83;;;37.70;95.50;;;;;;5045668;28;20551;-68
2023/07/09 08:59:18;;;;;;;13.00;12.70;;;37.60;94.70;;;;;;5047668;28;20509;-68
2023/07/09 09:01:52;;;;;;;12.70;12.40;;;37.70;94.30;;;;;;5037045;28;20460;-68
2023/07/09 09:04:22;;;;;;;13.60;13.20;;;37.60;93.60;;;;;;5051140;28;20546;-67
2023/07/09 09:06:54;;;;;;;12.90;12.60;;;37.90;93.00;;;;;;5039453;28;20856;-68
2023/07/09 09:09:27;;;;;;;13.23;12.83;;;38.20;92.60;;;;;;5047757;28;20472;-68
2023/07/09 09:12:03;;;;;;;13.23;12.83;;;38.30;91.90;;;;;;5045387;28;20467;-68
2023/07/09 09:14:33;;;;;;;12.50;12.20;;;38.20;91.00;;;;;;5043169;28;20463;-69
2023/07/09 09:17:03;;;;;;;12.70;12.40;;;38.50;90.50;;;;;;5057558;28;20564;-68
2023/07/09 09:19:36;;;;;;;12.67;12.37;;;38.70;90.30;;;;;;5071536;28;20846;-68
2023/07/09 09:22:08;;;;;;;12.77;12.47;;;38.60;89.60;;;;;;5067241;28;20466;-70
2023/07/09 09:24:38;;;;;;;12.97;12.67;;;38.60;88.60;;;;;;5071069;28;20513;-69
2023/07/09 09:27:05;;;;;;;13.00;12.70;;;38.90;88.20;;;;;;5064208;28;21527;-69
2023/07/09 09:29:32;;;;;;;12.33;12.03;;;39.50;85.60;;;;;;5066878;28;20446;-69
2023/07/09 09:32:17;;;;;;;12.43;12.13;;;39.60;83.70;;;;;;5060932;28;20459;-69
2023/07/09 09:34:44;;;;;;;12.40;12.10;;;39.90;83.30;;;;;;5056562;28;20466;-68
2023/07/09 09:37:12;;;;;;;12.67;12.37;;;39.90;81.00;;;;;;5059635;28;20458;-68
2023/07/09 09:39:39;;;;;;;12.73;12.43;;;40.00;80.40;;;;;;5068934;28;20553;-69
2023/07/09 09:42:12;;;;;;;12.53;12.23;;;40.50;80.00;;;;;;5072978;28;20454;-69
2023/07/09 09:44:45;;;;;;;12.03;11.73;;;40.90;76.00;;;;;;5062552;28;20546;-69
2023/07/09 09:47:13;;;;;;;12.80;12.50;;;40.80;76.80;;;;;;5068555;28;20493;-68
2023/07/09 09:49:41;;;;;;;12.30;12.00;;;40.70;75.00;;;;;;5077569;28;20508;-69
2023/07/09 09:52:14;;;;;;;12.17;11.87;;;40.10;74.10;;;;;;5071068;28;20979;-68
2023/07/09 09:54:44;;;;;;;12.07;11.77;;;40.50;74.10;;;;;;5068964;28;20451;-68
2023/07/09 09:57:17;;;;;;;12.23;11.93;;;41.20;72.60;;;;;;5070682;28;20466;-69
2023/07/09 09:59:47;;;;;;;12.73;12.43;;;41.20;71.20;;;;;;5068312;28;20491;-69
2023/07/09 10:02:19;;;;;;;11.80;11.50;;;41.80;72.10;;;;;;5068475;28;20490;-69
2023/07/09 10:04:46;;;;;;;11.70;11.40;;;41.90;70.00;;;;;;5063792;28;20471;-68
2023/07/09 10:07:21;;;;;;;11.60;11.30;;;42.00;67.40;;;;;;5064318;28;20466;-68
2023/07/09 10:09:52;;;;;;;12.03;11.73;;;42.20;65.20;;;;;;5066978;28;20465;-69
2023/07/09 10:12:35;;;;;;;12.07;11.77;;;42.00;65.70;;;;;;5064724;28;20462;-68
2023/07/09 10:15:09;;;;;;;12.57;12.27;;;42.00;64.90;;;;;;5068769;28;20498;-70
2023/07/09 10:17:41;;;;;;;11.93;11.63;;;42.10;65.00;;;;;;5071727;28;20847;-68
2023/07/09 10:20:25;;;;;;;11.80;11.50;;;41.90;66.10;;;;;;5072048;28;20466;-68
2023/07/09 10:22:57;;;;;;;12.13;11.83;;;42.60;64.40;;;;;;5068153;28;20463;-69
2023/07/09 10:25:37;;;;;;;11.80;11.50;;;43.50;62.30;;;;;;5060285;28;20486;-69
2023/07/09 10:28:29;;;;;;;12.20;11.90;;;43.30;61.80;;;;;;5067885;28;20459;-69
2023/07/09 10:31:07;;;;;;;12.00;11.70;;;42.80;60.70;;;;;;5067197;28;20999;-69
2023/07/09 10:33:56;;;;;;;11.50;11.20;;;42.70;58.70;;;;;;5067324;28;20549;-67
2023/07/09 10:36:34;;;;;;;11.70;11.40;;;43.50;58.80;;;;;;5059759;28;20556;-67
2023/07/09 10:39:06;;;;;;;11.60;11.30;;;43.50;57.20;;;;;;5062052;28;20458;-67
2023/07/09 10:41:35;;;;;;;12.10;11.80;;;43.50;57.30;;;;;;5068610;28;20580;-67
2023/07/09 10:44:11;;;;;;;12.13;11.83;;;44.10;57.40;;;;;;5064132;28;21127;-67
2023/07/09 10:46:41;;;;;;;11.90;11.60;;;44.30;57.50;;;;;;5072468;28;20655;-67
2023/07/09 10:49:13;;;;;;;12.20;11.90;;;44.50;54.80;;;;;;5067873;28;20886;-67
2023/07/09 10:51:42;;;;;;;11.93;11.63;;;44.70;53.70;;;;;;5059126;28;20474;-68
2023/07/09 10:54:16;;;;;;;11.83;11.53;;;43.90;53.20;;;;;;5067228;28;20497;-67
2023/07/09 10:57:01;;;;;;;11.87;11.57;;;43.80;53.90;;;;;;5063467;28;21048;-67
2023/07/09 10:59:31;;;;;;;12.20;11.90;;;43.20;54.00;;;;;;5064400;28;20454;-67
2023/07/09 11:02:03;;;;;;;12.07;11.77;;;43.60;54.30;;;;;;5062377;28;21387;-69
2023/07/09 11:04:38;;;;;;;12.37;12.07;;;43.30;54.60;;;;;;5072035;28;20465;-67
2023/07/09 11:07:08;;;;;;;12.43;12.13;;;43.10;55.30;;;;;;5066773;28;20451;-67
2023/07/09 11:09:38;;;;;;;12.50;12.20;;;43.40;55.20;;;;;;5065042;28;20459;-67
2023/07/09 11:12:10;;;;;;;12.40;12.10;;;43.30;55.70;;;;;;5073149;28;20454;-67
2023/07/09 11:14:40;;;;;;;12.20;11.90;;;43.30;54.70;;;;;;5055582;28;20459;-70
2023/07/09 11:17:14;;;;;;;12.00;11.70;;;43.50;54.40;;;;;;5067435;28;20489;-66
2023/07/09 11:19:46;;;;;;;12.17;11.87;;;44.00;54.60;;;;;;5063366;28;20455;-68
2023/07/09 11:22:20;;;;;;;11.40;11.10;;;44.50;54.00;;;;;;5067038;28;20458;-67
2023/07/09 11:24:50;;;;;;;11.30;11.00;;;44.80;52.90;;;;;;5064998;28;20462;-67
2023/07/09 11:27:19;;;;;;;11.93;11.63;;;44.20;52.00;;;;;;5072477;28;20538;-67
2023/07/09 11:29:57;;;;;;;11.70;11.40;;;43.90;52.30;;;;;;5067823;28;21023;-67
2023/07/09 11:32:24;;;;;;;11.30;11.00;;;44.00;52.00;;;;;;5068219;28;20557;-67
2023/07/09 11:34:53;;;;;;;11.70;11.40;;;43.80;51.80;;;;;;5067798;28;20459;-67
2023/07/09 11:37:25;;;;;;;11.70;11.40;;;43.60;51.30;;;;;;5067076;28;20490;-67
2023/07/09 11:39:53;;;;;;;11.50;11.20;;;43.10;52.00;;;;;;5064765;28;20520;-67
2023/07/09 11:42:28;;;;;;;12.40;12.10;;;42.80;53.20;;;;;;5059267;28;20464;-66
2023/07/09 11:45:01;;;;;;;11.73;11.43;;;43.00;51.90;;;;;;5063701;28;20494;-67
2023/07/09 11:47:33;;;;;;;12.10;11.80;;;43.00;52.30;;;;;;5063477;28;20485;-67
2023/07/09 11:50:05;;;;;;;11.80;11.50;;;43.50;53.40;;;;;;5063531;28;20466;-67
2023/07/09 11:52:35;;;;;;;12.03;11.73;;;42.30;53.60;;;;;;5064411;28;21028;-68
2023/07/09 11:55:22;;;;;;;12.17;11.87;;;42.30;53.30;;;;;;5063227;28;20451;-70
2023/07/09 11:57:49;;;;;;;11.43;11.13;;;42.30;52.80;;;;;;5067602;28;20469;-67
2023/07/09 12:00:17;;;;;;;11.23;10.97;;;42.40;52.70;;;;;;5064764;28;20538;-67
2023/07/09 12:02:44;;;;;;;11.37;11.07;;;42.90;52.80;;;;;;5060836;28;20470;-66
2023/07/09 12:05:15;;;;;;;11.50;11.20;;;43.10;51.40;;;;;;5066899;28;20485;-69
2023/07/09 12:07:42;;;;;;;11.57;11.27;;;43.30;51.50;;;;;;5066473;28;20455;-69
2023/07/09 12:10:22;;;;;;;11.77;11.47;;;43.20;51.40;;;;;;5066252;28;20474;-68
2023/07/09 12:12:49;;;;;;;11.17;10.93;;;43.50;50.50;;;;;;5063674;28;20463;-70
2023/07/09 12:15:20;;;;;;;11.03;10.83;;;43.20;51.10;;;;;;5068854;28;20526;-70
2023/07/09 12:17:58;;;;;;;11.77;11.47;;;43.20;49.60;;;;;;5065677;28;20543;-69
2023/07/09 12:20:30;;;;;;;11.83;11.53;;;43.30;49.60;;;;;;5064833;28;20491;-70
2023/07/09 12:22:58;;;;;;;11.87;11.57;;;43.40;50.50;;;;;;5067256;28;20831;-69
2023/07/09 12:25:27;;;;;;;11.90;11.60;;;43.40;49.80;;;;;;5065557;28;20542;-69
2023/07/09 12:27:55;;;;;;;12.03;11.73;;;42.90;49.00;;;;;;5065748;28;20477;-68
2023/07/09 12:30:22;;;;;;;12.13;11.83;;;42.60;49.50;;;;;;5064228;28;20462;-69
2023/07/09 12:32:52;;;;;;;11.77;11.47;;;42.00;51.70;;;;;;5065942;28;20477;-69
2023/07/09 12:35:20;;;;;;;11.93;11.63;;;41.60;51.70;;;;;;5065400;28;20465;-69
2023/07/09 12:37:52;;;;;;;12.50;12.20;;;41.80;52.10;;;;;;5062160;28;20494;-70
2023/07/09 12:40:22;;;;;;;12.40;12.10;;;41.40;51.90;;;;;;5069715;28;20462;-68
2023/07/09 12:42:50;;;;;;;12.40;12.10;;;41.00;52.30;;;;;;5066072;28;20467;-68
2023/07/09 12:45:19;;;;;;;12.10;11.80;;;40.40;52.00;;;;;;5064048;28;21252;-68
2023/07/09 12:47:47;;;;;;;12.10;11.80;;;40.10;52.30;;;;;;5068784;28;20462;-68